createdAt,value
2019-05-03T00:00:11.904Z,52.49
2019-05-03T00:02:54.685Z,52.48
2019-05-03T00:05:29.697Z,52.46
2019-05-03T00:08:03.177Z,52.46
2019-05-03T00:10:32.146Z,52.46
2019-05-03T00:13:01.880Z,52.45
2019-05-03T00:15:52.069Z,52.27
2019-05-03T00:18:22.153Z,52.35
2019-05-03T00:20:50.296Z,52.36
2019-05-03T00:23:19.310Z,52.34
2019-05-03T00:25:48.208Z,52.34
2019-05-03T00:28:17.268Z,52.36
2019-05-03T00:30:46.161Z,52.33
2019-05-03T00:33:15.008Z,52.30
2019-05-03T00:36:06.125Z,52.27
2019-05-03T00:38:35.036Z,52.29
2019-05-03T00:41:03.848Z,52.27
2019-05-03T00:43:32.984Z,52.31
2019-05-03T00:46:02.133Z,52.24
2019-05-03T00:48:32.634Z,52.21
2019-05-03T00:51:02.430Z,52.17
2019-05-03T00:53:31.881Z,52.18
2019-05-03T00:56:01.753Z,52.17
2019-05-03T00:58:31.841Z,52.14
2019-05-03T01:01:02.702Z,52.16
2019-05-03T01:03:32.539Z,52.09
2019-05-03T01:06:02.379Z,52.10
2019-05-03T01:08:32.698Z,52.06
2019-05-03T01:11:02.137Z,52.06
2019-05-03T01:13:32.047Z,52.03
2019-05-03T01:16:06.680Z,52.06
2019-05-03T01:18:35.556Z,52.14
2019-05-03T01:21:04.445Z,52.14
2019-05-03T01:23:33.274Z,52.18
2019-05-03T01:26:02.573Z,52.14
2019-05-03T01:28:32.346Z,52.13
2019-05-03T01:31:02.517Z,52.11
2019-05-03T01:33:32.256Z,52.08
2019-05-03T01:36:02.773Z,52.08
2019-05-03T01:38:32.141Z,52.14
2019-05-03T01:41:01.708Z,52.14
2019-05-03T01:43:31.735Z,52.08
2019-05-03T01:46:02.757Z,52.03
2019-05-03T01:48:42.585Z,52.00
2019-05-03T01:51:18.915Z,52.04
2019-05-03T01:53:48.554Z,51.99
2019-05-03T01:56:17.420Z,51.99
2019-05-03T01:58:46.250Z,51.95
2019-05-03T02:01:36.985Z,51.92
2019-05-03T02:04:15.011Z,51.90
2019-05-03T02:06:43.938Z,51.91
2019-05-03T02:09:12.949Z,51.91
2019-05-03T02:11:42.214Z,51.95
2019-05-03T02:14:12.416Z,51.89
2019-05-03T02:16:41.982Z,51.90
2019-05-03T02:19:12.623Z,51.90
2019-05-03T02:21:41.902Z,51.87
2019-05-03T02:24:11.816Z,51.86
2019-05-03T02:26:42.535Z,51.80
2019-05-03T02:29:12.600Z,51.72
2019-05-03T02:31:43.551Z,51.68
2019-05-03T02:34:12.690Z,51.70
2019-05-03T02:36:42.774Z,51.75
2019-05-03T02:39:13.982Z,51.71
2019-05-03T02:41:47.862Z,51.64
2019-05-03T02:44:16.459Z,51.64
2019-05-03T02:47:10.157Z,51.63
2019-05-03T02:49:45.331Z,51.63
2019-05-03T02:52:31.242Z,51.64
2019-05-03T02:55:00.350Z,51.66
2019-05-03T02:57:29.254Z,51.56
2019-05-03T02:59:58.224Z,51.60
2019-05-03T03:02:27.295Z,51.66
2019-05-03T03:04:56.483Z,51.58
2019-05-03T03:07:25.978Z,51.54
2019-05-03T03:09:55.874Z,51.53
2019-05-03T03:12:25.757Z,51.49
2019-05-03T03:14:55.218Z,51.50
2019-05-03T03:17:25.430Z,51.47
2019-05-03T03:19:55.272Z,51.39
2019-05-03T03:22:25.960Z,51.36
2019-05-03T03:24:57.900Z,51.37
2019-05-03T03:27:26.727Z,51.35
2019-05-03T03:30:29.233Z,51.30
2019-05-03T03:33:00.224Z,51.29
2019-05-03T03:35:30.861Z,51.27
2019-05-03T03:37:59.950Z,51.28
2019-05-03T03:40:29.689Z,51.27
2019-05-03T03:42:58.530Z,51.25
2019-05-03T03:45:27.461Z,51.20
2019-05-03T03:47:56.763Z,51.24
2019-05-03T03:50:26.111Z,51.28
2019-05-03T03:52:55.736Z,51.16
2019-05-03T03:55:26.498Z,51.22
2019-05-03T03:57:55.880Z,51.20
2019-05-03T04:00:25.806Z,51.20
2019-05-03T04:02:55.399Z,51.20
2019-05-03T04:05:25.340Z,51.18
2019-05-03T04:07:56.187Z,51.14
2019-05-03T04:10:26.277Z,51.09
2019-05-03T04:12:56.113Z,51.02
2019-05-03T04:15:50.856Z,51.08
2019-05-03T04:18:35.960Z,51.08
2019-05-03T04:21:05.551Z,51.00
2019-05-03T04:23:35.912Z,51.00
2019-05-03T04:26:06.788Z,50.91
2019-05-03T04:28:36.168Z,50.91
2019-05-03T04:31:06.187Z,50.95
2019-05-03T04:33:35.857Z,50.93
2019-05-03T04:36:05.532Z,50.91
2019-05-03T04:38:35.462Z,50.80
2019-05-03T04:41:05.869Z,50.88
2019-05-03T04:43:35.709Z,50.80
2019-05-03T04:46:26.005Z,50.77
2019-05-03T04:48:56.200Z,50.69
2019-05-03T04:51:26.133Z,50.70
2019-05-03T04:54:12.586Z,50.64
2019-05-03T04:56:41.591Z,50.58
2019-05-03T04:59:10.495Z,50.51
2019-05-03T05:01:39.426Z,50.48
2019-05-03T05:04:08.213Z,50.42
2019-05-03T05:06:37.205Z,50.27
2019-05-03T05:09:07.197Z,50.19
2019-05-03T05:11:36.246Z,50.12
2019-05-03T05:14:06.409Z,50.05
2019-05-03T05:16:35.629Z,50.01
2019-05-03T05:19:08.163Z,50.02
2019-05-03T05:21:41.299Z,50.00
2019-05-03T05:24:10.157Z,50.04
2019-05-03T05:26:45.070Z,49.93
2019-05-03T05:29:15.859Z,50.03
2019-05-03T05:31:44.770Z,50.08
2019-05-03T05:34:15.331Z,50.05
2019-05-03T05:36:45.060Z,49.94
2019-05-03T05:39:18.734Z,49.79
2019-05-03T05:41:47.433Z,49.56
2019-05-03T05:44:16.405Z,49.26
2019-05-03T05:47:10.202Z,49.07
2019-05-03T05:49:47.125Z,48.90
2019-05-03T05:52:16.137Z,48.67
2019-05-03T05:54:48.689Z,48.54
2019-05-03T05:57:34.626Z,48.39
2019-05-03T06:00:07.950Z,48.23
2019-05-03T06:02:36.896Z,48.08
2019-05-03T06:05:06.160Z,48.01
2019-05-03T06:07:56.800Z,47.87
2019-05-03T06:10:46.299Z,47.72
2019-05-03T06:13:38.040Z,47.62
2019-05-03T06:16:18.316Z,47.56
2019-05-03T06:19:18.427Z,47.28
2019-05-03T06:21:54.858Z,47.26
2019-05-03T06:24:29.029Z,47.27
2019-05-03T06:27:06.051Z,47.16
2019-05-03T06:29:35.221Z,47.22
2019-05-03T06:32:11.389Z,47.05
2019-05-03T06:34:40.711Z,47.11
2019-05-03T06:37:14.805Z,47.25
2019-05-03T06:39:45.425Z,47.25
2019-05-03T06:42:19.008Z,47.35
2019-05-03T06:44:45.596Z,47.23
2019-05-03T06:47:15.756Z,47.28
2019-05-03T06:49:48.411Z,47.36
2019-05-03T06:52:19.701Z,47.24
2019-05-03T06:54:46.562Z,47.30
2019-05-03T06:57:17.202Z,47.22
2019-05-03T06:59:54.993Z,47.13
2019-05-03T07:02:35.398Z,47.05
2019-05-03T07:05:05.071Z,46.80
2019-05-03T07:07:56.063Z,46.71
2019-05-03T07:10:32.833Z,46.51
2019-05-03T07:13:04.764Z,46.45
2019-05-03T07:15:35.177Z,46.30
2019-05-03T07:18:05.735Z,46.39
2019-05-03T07:20:47.969Z,46.37
2019-05-03T07:23:16.846Z,46.34
2019-05-03T07:25:45.713Z,46.29
2019-05-03T07:28:15.162Z,46.13
2019-05-03T07:30:45.355Z,46.17
2019-05-03T07:33:20.279Z,46.07
2019-05-03T07:35:49.425Z,46.15
2019-05-03T07:38:18.338Z,46.07
2019-05-03T07:40:47.415Z,45.88
2019-05-03T07:43:18.876Z,45.97
2019-05-03T07:45:47.111Z,46.04
2019-05-03T07:48:16.017Z,46.06
2019-05-03T07:50:45.061Z,46.11
2019-05-03T07:53:15.024Z,46.11
2019-05-03T07:56:15.717Z,46.21
2019-05-03T07:58:59.493Z,45.96
2019-05-03T08:01:25.015Z,46.00
2019-05-03T08:03:55.163Z,46.26
2019-05-03T08:06:24.748Z,46.21
2019-05-03T08:08:54.552Z,45.92
2019-05-03T08:11:24.896Z,46.04
2019-05-03T08:13:55.034Z,46.04
2019-05-03T08:16:25.090Z,45.83
2019-05-03T08:18:55.931Z,46.03
2019-05-03T08:21:25.458Z,46.01
2019-05-03T08:23:55.652Z,46.41
2019-05-03T08:26:25.751Z,46.47
2019-05-03T08:28:55.022Z,46.59
2019-05-03T08:31:46.368Z,46.65
2019-05-03T08:34:25.744Z,46.62
2019-05-03T08:37:05.217Z,46.61
2019-05-03T08:39:35.565Z,46.60
2019-05-03T08:42:07.423Z,46.58
2019-05-03T08:44:36.295Z,46.43
2019-05-03T08:47:05.577Z,46.26
2019-05-03T08:49:34.892Z,46.30
2019-05-03T08:52:05.423Z,46.30
2019-05-03T08:54:34.845Z,46.30
2019-05-03T08:57:06.269Z,46.26
2019-05-03T08:59:35.761Z,46.26
2019-05-03T09:02:14.101Z,46.25
2019-05-03T09:04:38.531Z,46.18
2019-05-03T09:07:06.905Z,46.05
2019-05-03T09:10:01.681Z,46.05
2019-05-03T09:12:48.511Z,46.10
2019-05-03T09:15:17.416Z,45.92
2019-05-03T09:17:46.498Z,45.93
2019-05-03T09:20:15.656Z,45.87
2019-05-03T09:22:45.305Z,45.76
2019-05-03T09:25:15.446Z,45.82
2019-05-03T09:27:44.746Z,45.74
2019-05-03T09:30:14.548Z,45.73
2019-05-03T09:32:44.789Z,45.53
2019-05-03T09:35:29.023Z,45.47
2019-05-03T09:37:45.064Z,45.42
2019-05-03T09:40:15.171Z,45.25
2019-05-03T09:42:44.522Z,45.33
2019-05-03T09:45:15.344Z,45.34
2019-05-03T09:47:44.905Z,45.31
2019-05-03T09:50:15.653Z,45.31
2019-05-03T09:52:47.071Z,45.28
2019-05-03T09:55:21.457Z,45.21
2019-05-03T09:57:50.474Z,44.99
2019-05-03T10:00:19.930Z,45.06
2019-05-03T10:02:48.819Z,45.16
2019-05-03T10:05:17.856Z,45.10
2019-05-03T10:07:46.807Z,45.02
2019-05-03T10:10:15.691Z,45.11
2019-05-03T10:12:44.712Z,45.13
2019-05-03T10:15:15.861Z,45.08
2019-05-03T10:17:55.635Z,45.18
2019-05-03T10:20:27.467Z,45.14
2019-05-03T10:22:59.475Z,44.81
2019-05-03T10:25:28.346Z,44.75
2019-05-03T10:27:57.338Z,44.72
2019-05-03T10:30:27.853Z,44.77
2019-05-03T10:33:06.169Z,45.03
2019-05-03T10:35:35.478Z,45.10
2019-05-03T10:38:05.805Z,44.97
2019-05-03T10:40:35.762Z,44.72
2019-05-03T10:43:04.986Z,44.69
2019-05-03T10:45:35.482Z,44.80
2019-05-03T10:48:04.990Z,44.97
2019-05-03T10:50:40.276Z,44.88
2019-05-03T10:53:15.406Z,44.91
2019-05-03T10:56:07.834Z,44.92
2019-05-03T10:58:37.260Z,44.90
2019-05-03T11:01:06.506Z,44.81
2019-05-03T11:03:35.539Z,44.80
2019-05-03T11:06:05.519Z,44.75
2019-05-03T11:08:34.431Z,44.63
2019-05-03T11:11:05.805Z,44.69
2019-05-03T11:13:34.988Z,44.82
2019-05-03T11:16:05.626Z,44.70
2019-05-03T11:18:34.785Z,44.54
2019-05-03T11:21:05.215Z,44.25
2019-05-03T11:23:34.716Z,44.27
2019-05-03T11:26:03.704Z,44.37
2019-05-03T11:28:32.728Z,44.41
2019-05-03T11:31:21.043Z,44.40
2019-05-03T11:33:49.893Z,44.38
2019-05-03T11:36:34.873Z,44.34
2019-05-03T11:39:05.172Z,44.27
2019-05-03T11:41:35.907Z,44.41
2019-05-03T11:44:24.202Z,44.42
2019-05-03T11:46:55.107Z,44.29
2019-05-03T11:49:25.481Z,44.34
2019-05-03T11:51:55.587Z,44.38
2019-05-03T11:54:24.955Z,44.28
2019-05-03T11:56:55.625Z,44.32
2019-05-03T11:59:25.407Z,44.30
2019-05-03T12:02:15.319Z,44.21
2019-05-03T12:04:45.871Z,44.11
2019-05-03T12:07:18.405Z,44.04
2019-05-03T12:09:47.607Z,44.04
2019-05-03T12:12:29.456Z,44.03
2019-05-03T12:14:58.495Z,44.00
2019-05-03T12:17:30.157Z,43.97
2019-05-03T12:20:00.855Z,43.95
2019-05-03T12:22:30.506Z,43.92
2019-05-03T12:25:00.827Z,43.80
2019-05-03T12:27:30.460Z,43.71
2019-05-03T12:29:59.574Z,44.16
2019-05-03T12:32:28.623Z,44.16
2019-05-03T12:34:59.521Z,43.62
2019-05-03T12:37:28.488Z,43.55
2019-05-03T12:39:57.741Z,43.53
2019-05-03T12:42:28.484Z,43.55
2019-05-03T12:44:57.646Z,43.45
2019-05-03T12:47:26.691Z,43.53
2019-05-03T12:49:55.952Z,43.63
2019-05-03T12:52:26.733Z,43.64
2019-05-03T12:54:55.581Z,43.57
2019-05-03T12:57:24.892Z,43.60
2019-05-03T13:00:02.408Z,43.60
2019-05-03T13:02:38.667Z,43.53
2019-05-03T13:05:07.753Z,43.43
2019-05-03T13:07:41.728Z,43.36
2019-05-03T13:10:10.691Z,43.32
2019-05-03T13:12:50.652Z,43.26
2019-05-03T13:15:11.722Z,43.33
2019-05-03T13:17:41.045Z,43.48
2019-05-03T13:20:11.957Z,43.55
2019-05-03T13:22:40.853Z,43.52
2019-05-03T13:25:09.983Z,43.40
2019-05-03T13:27:38.868Z,43.35
2019-05-03T13:30:09.807Z,43.36
2019-05-03T13:32:38.817Z,43.44
2019-05-03T13:35:08.495Z,43.50
2019-05-03T13:37:37.855Z,43.33
2019-05-03T13:40:07.329Z,43.36
2019-05-03T13:42:36.238Z,43.45
2019-05-03T13:45:05.845Z,43.50
2019-05-03T13:47:35.139Z,43.44
2019-05-03T13:50:04.898Z,43.38
2019-05-03T13:52:34.620Z,43.41
2019-05-03T13:55:05.407Z,43.31
2019-05-03T13:57:35.355Z,43.22
2019-05-03T14:00:05.924Z,43.14
2019-05-03T14:02:35.729Z,43.12
2019-05-03T14:05:24.567Z,43.11
2019-05-03T14:07:53.783Z,43.03
2019-05-03T14:10:24.995Z,42.94
2019-05-03T14:12:54.825Z,42.90
2019-05-03T14:15:25.425Z,42.86
2019-05-03T14:17:54.721Z,42.94
2019-05-03T14:20:41.539Z,43.03
2019-05-03T14:23:10.971Z,43.04
2019-05-03T14:25:39.981Z,43.02
2019-05-03T14:28:09.155Z,43.12
2019-05-03T14:30:38.074Z,43.15
2019-05-03T14:33:07.002Z,43.18
2019-05-03T14:35:35.801Z,43.21
2019-05-03T14:38:05.911Z,43.21
2019-05-03T14:40:34.295Z,43.20
2019-05-03T14:43:04.789Z,43.21
2019-05-03T14:45:34.944Z,43.17
2019-05-03T14:48:05.578Z,43.12
2019-05-03T14:50:35.057Z,43.04
2019-05-03T14:53:05.460Z,43.00
2019-05-03T14:55:59.483Z,42.91
2019-05-03T14:58:49.346Z,42.76
2019-05-03T15:01:28.127Z,42.73
2019-05-03T15:03:57.255Z,42.62
2019-05-03T15:06:26.185Z,42.51
2019-05-03T15:08:54.985Z,42.51
2019-05-03T15:11:24.001Z,42.47
2019-05-03T15:13:54.911Z,42.40
2019-05-03T15:16:25.015Z,42.39
2019-05-03T15:18:54.828Z,42.47
2019-05-03T15:21:25.206Z,42.51
2019-05-03T15:23:54.839Z,42.54
2019-05-03T15:26:24.880Z,42.50
2019-05-03T15:28:55.423Z,42.52
2019-05-03T15:31:24.672Z,42.49
2019-05-03T15:33:55.374Z,42.46
2019-05-03T15:36:24.350Z,42.50
2019-05-03T15:38:55.094Z,42.55
2019-05-03T15:41:25.178Z,42.58
2019-05-03T15:44:10.575Z,42.59
2019-05-03T15:46:57.006Z,42.66
2019-05-03T15:49:27.694Z,42.70
2019-05-03T15:51:56.619Z,42.72
2019-05-03T15:54:25.533Z,42.76
2019-05-03T15:56:54.535Z,42.79
2019-05-03T15:59:24.382Z,42.80
2019-05-03T16:01:55.185Z,42.83
2019-05-03T16:04:25.091Z,42.87
2019-05-03T16:06:55.380Z,42.90
2019-05-03T16:09:24.665Z,42.95
2019-05-03T16:11:55.438Z,42.95
2019-05-03T16:14:24.501Z,42.97
2019-05-03T16:16:54.749Z,42.98
2019-05-03T16:19:24.272Z,42.99
2019-05-03T16:21:54.530Z,42.99
2019-05-03T16:24:24.880Z,43.00
2019-05-03T16:27:27.150Z,43.02
2019-05-03T16:29:56.081Z,43.02
2019-05-03T16:32:24.963Z,43.14
2019-05-03T16:34:54.970Z,43.20
2019-05-03T16:37:25.438Z,43.28
2019-05-03T16:39:55.571Z,43.23
2019-05-03T16:42:25.019Z,43.31
2019-05-03T16:44:55.000Z,43.33
2019-05-03T16:47:24.961Z,43.23
2019-05-03T16:49:53.875Z,43.32
2019-05-03T16:52:22.794Z,43.24
2019-05-03T16:54:51.834Z,43.25
2019-05-03T16:57:20.856Z,43.25
2019-05-03T16:59:49.890Z,43.18
2019-05-03T17:02:18.867Z,43.07
2019-05-03T17:04:55.675Z,43.01
2019-05-03T17:07:41.879Z,43.08
2019-05-03T17:10:27.137Z,43.07
2019-05-03T17:12:56.945Z,43.02
2019-05-03T17:15:25.936Z,43.00
2019-05-03T17:17:54.929Z,42.95
2019-05-03T17:20:25.423Z,42.89
2019-05-03T17:22:55.518Z,42.91
2019-05-03T17:25:24.625Z,42.92
2019-05-03T17:27:54.293Z,42.97
2019-05-03T17:30:32.806Z,43.00
2019-05-03T17:32:55.112Z,43.03
2019-05-03T17:35:25.162Z,43.04
2019-05-03T17:37:54.631Z,43.08
2019-05-03T17:40:45.745Z,43.17
2019-05-03T17:43:23.320Z,43.24
2019-05-03T17:45:54.997Z,43.35
2019-05-03T17:48:24.097Z,43.34
2019-05-03T17:50:54.932Z,43.38
2019-05-03T17:53:55.155Z,43.32
2019-05-03T17:56:41.147Z,43.35
2019-05-03T17:59:15.196Z,43.42
2019-05-03T18:02:01.225Z,43.47
2019-05-03T18:04:39.170Z,43.54
2019-05-03T18:07:18.430Z,43.60
2019-05-03T18:09:47.786Z,43.63
2019-05-03T18:12:16.727Z,43.67
2019-05-03T18:14:45.735Z,43.68
2019-05-03T18:17:14.912Z,43.76
2019-05-03T18:19:44.851Z,43.77
2019-05-03T18:22:15.163Z,43.73
2019-05-03T18:24:45.493Z,43.74
2019-05-03T18:27:15.049Z,43.80
2019-05-03T18:29:44.946Z,43.81
2019-05-03T18:32:14.700Z,43.78
2019-05-03T18:34:45.365Z,43.68
2019-05-03T18:37:15.226Z,43.78
2019-05-03T18:39:45.227Z,43.75
2019-05-03T18:42:19.410Z,43.73
2019-05-03T18:44:51.780Z,43.81
2019-05-03T18:47:25.068Z,43.71
2019-05-03T18:49:54.989Z,43.74
2019-05-03T18:52:24.162Z,43.85
2019-05-03T18:54:55.093Z,43.80
2019-05-03T18:57:25.570Z,43.91
2019-05-03T18:59:55.567Z,43.92
2019-05-03T19:02:25.192Z,43.87
2019-05-03T19:04:55.489Z,44.00
2019-05-03T19:07:46.204Z,44.03
2019-05-03T19:10:33.060Z,44.04
2019-05-03T19:13:18.410Z,44.06
2019-05-03T19:15:47.248Z,43.99
2019-05-03T19:18:27.789Z,44.02
2019-05-03T19:20:56.678Z,44.02
2019-05-03T19:23:25.601Z,44.04
2019-05-03T19:25:55.284Z,44.07
2019-05-03T19:28:25.036Z,44.16
2019-05-03T19:30:54.973Z,44.15
2019-05-03T19:33:24.101Z,44.18
2019-05-03T19:35:54.912Z,44.19
2019-05-03T19:38:24.603Z,44.23
2019-05-03T19:40:54.802Z,44.21
2019-05-03T19:43:24.372Z,44.24
2019-05-03T19:45:54.392Z,44.17
2019-05-03T19:48:25.413Z,44.31
2019-05-03T19:50:54.907Z,44.29
2019-05-03T19:53:49.207Z,44.28
2019-05-03T19:56:19.100Z,44.27
2019-05-03T19:58:48.110Z,44.28
2019-05-03T20:01:42.020Z,44.29
2019-05-03T20:04:30.301Z,44.36
2019-05-03T20:07:16.803Z,44.36
2019-05-03T20:09:45.809Z,44.33
2019-05-03T20:12:15.269Z,44.32
2019-05-03T20:14:45.062Z,44.38
2019-05-03T20:17:14.816Z,44.46
2019-05-03T20:19:45.145Z,44.44
2019-05-03T20:22:15.188Z,44.39
2019-05-03T20:24:44.813Z,44.42
2019-05-03T20:27:15.141Z,44.53
2019-05-03T20:29:46.315Z,44.47
2019-05-03T20:32:15.917Z,44.48
2019-05-03T20:34:45.077Z,44.42
2019-05-03T20:37:14.691Z,44.46
2019-05-03T20:39:43.905Z,44.46
2019-05-03T20:42:15.445Z,44.55
2019-05-03T20:44:56.006Z,44.54
2019-05-03T20:47:38.371Z,44.58
2019-05-03T20:50:17.808Z,44.61
2019-05-03T20:52:47.037Z,44.63
2019-05-03T20:55:16.036Z,44.57
2019-05-03T20:57:45.111Z,44.67
2019-05-03T21:00:16.181Z,44.63
2019-05-03T21:02:53.463Z,44.74
2019-05-03T21:05:27.209Z,44.72
2019-05-03T21:07:46.829Z,44.72
2019-05-03T21:10:15.805Z,44.71
2019-05-03T21:12:46.241Z,44.60
2019-05-03T21:15:39.877Z,44.74
2019-05-03T21:18:27.299Z,44.75
2019-05-03T21:21:09.632Z,44.76
2019-05-03T21:23:42.211Z,44.74
2019-05-03T21:28:59.112Z,44.80
2019-05-03T21:31:28.070Z,44.79
2019-05-03T21:33:57.049Z,44.81
2019-05-03T21:36:25.983Z,44.87
2019-05-03T21:38:55.028Z,44.92
2019-05-03T21:41:24.613Z,44.86
2019-05-03T21:43:54.492Z,44.90
2019-05-03T21:46:42.486Z,44.90
2019-05-03T21:49:16.478Z,44.89
2019-05-03T21:51:45.368Z,44.87
2019-05-03T21:54:15.269Z,45.00
2019-05-03T21:56:44.788Z,44.99
2019-05-03T21:59:13.893Z,45.00
2019-05-03T22:02:02.091Z,45.00
2019-05-03T22:04:30.967Z,44.99
2019-05-03T22:06:59.973Z,45.03
2019-05-03T22:09:28.952Z,45.04
2019-05-03T22:11:57.880Z,45.05
2019-05-03T22:14:35.247Z,45.04
2019-05-03T22:17:26.226Z,45.05
2019-05-03T22:19:59.217Z,45.09
2019-05-03T22:22:47.062Z,45.05
2019-05-03T22:25:17.602Z,45.09
2019-05-03T22:27:46.572Z,45.12
2019-05-03T22:30:15.634Z,45.18
2019-05-03T22:32:44.632Z,45.21
2019-05-03T22:35:15.635Z,45.26
2019-05-03T22:37:44.686Z,45.26
2019-05-03T22:40:14.605Z,45.28
2019-05-03T22:42:44.815Z,45.29
2019-05-03T22:45:14.225Z,45.35
2019-05-03T22:47:44.567Z,45.35
2019-05-03T22:50:14.739Z,45.44
2019-05-03T22:52:45.524Z,45.41
2019-05-03T22:55:15.277Z,45.37
2019-05-03T22:57:44.702Z,45.43
2019-05-03T23:00:14.609Z,45.39
2019-05-03T23:02:45.510Z,45.37
2019-05-03T23:05:14.841Z,45.43
2019-05-03T23:07:44.259Z,45.37
2019-05-03T23:10:14.817Z,45.41
2019-05-03T23:12:45.261Z,45.43
2019-05-03T23:15:15.064Z,45.40
2019-05-03T23:17:45.154Z,45.39
2019-05-03T23:20:25.479Z,45.50
2019-05-03T23:22:54.801Z,45.46
2019-05-03T23:25:24.984Z,45.48
2019-05-03T23:27:55.105Z,45.47
2019-05-03T23:30:24.770Z,45.49
2019-05-03T23:32:54.700Z,45.61
2019-05-03T23:35:24.648Z,45.53
2019-05-03T23:37:54.332Z,45.53
2019-05-03T23:40:25.296Z,45.54
2019-05-03T23:42:54.537Z,45.54
2019-05-03T23:45:25.418Z,45.56
2019-05-03T23:47:54.085Z,45.59
2019-05-03T23:50:24.728Z,45.66
2019-05-03T23:52:54.501Z,45.55
2019-05-03T23:55:34.935Z,45.55
2019-05-03T23:58:04.859Z,45.55
